sensor_id;sensor_type;location;lat;lon;timestamp;temperature;humidity
292;DHT22;23311;48.776;9.162;2022-10-19T00:01:09;13.50;95.50
292;DHT22;23311;48.776;9.162;2022-10-19T00:03:39;13.40;95.50
292;DHT22;23311;48.776;9.162;2022-10-19T00:06:13;13.30;95.50
292;DHT22;23311;48.776;9.162;2022-10-19T00:08:42;13.30;95.50
292;DHT22;23311;48.776;9.162;2022-10-19T00:11:10;13.20;95.50
292;DHT22;23311;48.776;9.162;2022-10-19T00:13:39;13.20;95.50
292;DHT22;23311;48.776;9.162;2022-10-19T00:16:08;13.20;95.50
292;DHT22;23311;48.776;9.162;2022-10-19T00:18:39;13.10;95.50
292;DHT22;23311;48.776;9.162;2022-10-19T00:21:10;13.10;95.50
292;DHT22;23311;48.776;9.162;2022-10-19T00:23:39;13.10;95.50
292;DHT22;23311;48.776;9.162;2022-10-19T00:26:07;13.20;95.50
292;DHT22;23311;48.776;9.162;2022-10-19T00:28:36;13.10;95.50
292;DHT22;23311;48.776;9.162;2022-10-19T00:31:05;13.00;95.50
292;DHT22;23311;48.776;9.162;2022-10-19T00:33:33;13.00;95.50
292;DHT22;23311;48.776;9.162;2022-10-19T00:36:03;13.00;95.50
292;DHT22;23311;48.776;9.162;2022-10-19T00:38:31;12.90;95.50
292;DHT22;23311;48.776;9.162;2022-10-19T00:41:00;12.90;95.50
292;DHT22;23311;48.776;9.162;2022-10-19T00:43:29;12.90;95.50
292;DHT22;23311;48.776;9.162;2022-10-19T00:45:58;12.80;95.50
292;DHT22;23311;48.776;9.162;2022-10-19T00:48:28;12.80;95.50
292;DHT22;23311;48.776;9.162;2022-10-19T00:50:57;12.70;95.50
292;DHT22;23311;48.776;9.162;2022-10-19T00:53:29;12.70;95.50
292;DHT22;23311;48.776;9.162;2022-10-19T00:55:59;12.80;95.50
292;DHT22;23311;48.776;9.162;2022-10-19T00:58:29;13.00;95.50
292;DHT22;23311;48.776;9.162;2022-10-19T01:01:00;13.10;95.50
292;DHT22;23311;48.776;9.162;2022-10-19T01:03:29;13.20;95.50
292;DHT22;23311;48.776;9.162;2022-10-19T01:05:58;13.10;95.50
292;DHT22;23311;48.776;9.162;2022-10-19T01:08:28;13.20;95.50
292;DHT22;23311;48.776;9.162;2022-10-19T01:11:05;13.30;95.50
292;DHT22;23311;48.776;9.162;2022-10-19T01:13:45;13.30;95.50
292;DHT22;23311;48.776;9.162;2022-10-19T01:16:18;13.40;95.50
292;DHT22;23311;48.776;9.162;2022-10-19T01:18:55;13.50;95.50
292;DHT22;23311;48.776;9.162;2022-10-19T01:21:27;13.60;95.50
292;DHT22;23311;48.776;9.162;2022-10-19T01:24:31;13.70;95.50
292;DHT22;23311;48.776;9.162;2022-10-19T01:30:12;13.70;95.50
292;DHT22;23311;48.776;9.162;2022-10-19T01:32:52;13.80;95.50
292;DHT22;23311;48.776;9.162;2022-10-19T01:35:27;13.80;95.50
292;DHT22;23311;48.776;9.162;2022-10-19T01:38:06;13.90;95.50
292;DHT22;23311;48.776;9.162;2022-10-19T01:40:41;13.90;95.50
292;DHT22;23311;48.776;9.162;2022-10-19T01:43:19;14.00;95.50
292;DHT22;23311;48.776;9.162;2022-10-19T01:45:53;14.10;95.50
292;DHT22;23311;48.776;9.162;2022-10-19T01:48:25;14.10;95.50
292;DHT22;23311;48.776;9.162;2022-10-19T01:50:58;14.20;95.50
292;DHT22;23311;48.776;9.162;2022-10-19T01:53:32;14.20;95.50
292;DHT22;23311;48.776;9.162;2022-10-19T01:56:02;14.30;95.50
292;DHT22;23311;48.776;9.162;2022-10-19T01:58:34;14.20;95.50
292;DHT22;23311;48.776;9.162;2022-10-19T02:01:07;14.30;95.50
292;DHT22;23311;48.776;9.162;2022-10-19T02:03:38;14.30;95.50
292;DHT22;23311;48.776;9.162;2022-10-19T02:06:09;14.30;95.50
292;DHT22;23311;48.776;9.162;2022-10-19T02:08:41;14.40;95.50
292;DHT22;23311;48.776;9.162;2022-10-19T02:11:10;14.50;95.50
292;DHT22;23311;48.776;9.162;2022-10-19T02:13:38;14.50;95.50
292;DHT22;23311;48.776;9.162;2022-10-19T02:16:13;14.50;95.50
292;DHT22;23311;48.776;9.162;2022-10-19T02:18:45;14.50;95.50
292;DHT22;23311;48.776;9.162;2022-10-19T02:21:14;14.60;95.50
292;DHT22;23311;48.776;9.162;2022-10-19T02:23:42;14.60;95.50
292;DHT22;23311;48.776;9.162;2022-10-19T02:26:10;14.50;95.50
292;DHT22;23311;48.776;9.162;2022-10-19T02:28:39;14.60;95.50
292;DHT22;23311;48.776;9.162;2022-10-19T02:31:08;14.50;95.50
292;DHT22;23311;48.776;9.162;2022-10-19T02:33:36;14.50;95.50
292;DHT22;23311;48.776;9.162;2022-10-19T02:36:05;14.40;95.50
292;DHT22;23311;48.776;9.162;2022-10-19T02:38:34;14.50;95.50
292;DHT22;23311;48.776;9.162;2022-10-19T02:41:06;14.50;95.50
292;DHT22;23311;48.776;9.162;2022-10-19T02:43:38;14.50;95.50
292;DHT22;23311;48.776;9.162;2022-10-19T02:46:12;14.50;95.50
292;DHT22;23311;48.776;9.162;2022-10-19T02:48:43;14.50;95.50
292;DHT22;23311;48.776;9.162;2022-10-19T02:51:29;14.50;95.50
292;DHT22;23311;48.776;9.162;2022-10-19T02:53:57;14.50;95.50
292;DHT22;23311;48.776;9.162;2022-10-19T02:56:31;14.60;95.50
292;DHT22;23311;48.776;9.162;2022-10-19T02:58:59;14.60;95.50
292;DHT22;23311;48.776;9.162;2022-10-19T03:01:28;14.60;95.50
292;DHT22;23311;48.776;9.162;2022-10-19T03:03:56;14.70;95.50
292;DHT22;23311;48.776;9.162;2022-10-19T03:06:24;14.70;95.50
292;DHT22;23311;48.776;9.162;2022-10-19T03:08:52;14.70;95.50
292;DHT22;23311;48.776;9.162;2022-10-19T03:11:20;14.70;95.50
292;DHT22;23311;48.776;9.162;2022-10-19T03:13:48;14.80;95.50
292;DHT22;23311;48.776;9.162;2022-10-19T03:16:16;14.80;95.50
292;DHT22;23311;48.776;9.162;2022-10-19T03:18:46;14.80;95.50
292;DHT22;23311;48.776;9.162;2022-10-19T03:21:15;14.80;95.50
292;DHT22;23311;48.776;9.162;2022-10-19T03:23:43;14.80;95.50
292;DHT22;23311;48.776;9.162;2022-10-19T03:26:13;14.80;95.50
292;DHT22;23311;48.776;9.162;2022-10-19T03:28:41;14.80;95.50
292;DHT22;23311;48.776;9.162;2022-10-19T03:31:09;14.90;95.50
292;DHT22;23311;48.776;9.162;2022-10-19T03:33:37;14.90;95.50
292;DHT22;23311;48.776;9.162;2022-10-19T03:36:18;14.80;95.50
292;DHT22;23311;48.776;9.162;2022-10-19T03:38:49;14.80;95.50
292;DHT22;23311;48.776;9.162;2022-10-19T03:41:17;14.80;95.50
292;DHT22;23311;48.776;9.162;2022-10-19T03:43:45;14.70;95.50
292;DHT22;23311;48.776;9.162;2022-10-19T03:46:13;14.80;95.50
292;DHT22;23311;48.776;9.162;2022-10-19T03:48:42;14.80;95.50
292;DHT22;23311;48.776;9.162;2022-10-19T03:51:14;14.80;95.50
292;DHT22;23311;48.776;9.162;2022-10-19T03:53:42;14.80;95.50
292;DHT22;23311;48.776;9.162;2022-10-19T03:56:13;14.90;95.50
292;DHT22;23311;48.776;9.162;2022-10-19T03:58:43;14.90;95.50
292;DHT22;23311;48.776;9.162;2022-10-19T04:01:13;14.90;95.50
292;DHT22;23311;48.776;9.162;2022-10-19T04:03:42;14.80;95.50
292;DHT22;23311;48.776;9.162;2022-10-19T04:06:13;14.80;95.50
292;DHT22;23311;48.776;9.162;2022-10-19T04:08:48;14.80;95.50
292;DHT22;23311;48.776;9.162;2022-10-19T04:11:18;14.80;95.50
292;DHT22;23311;48.776;9.162;2022-10-19T04:13:47;14.80;95.50
292;DHT22;23311;48.776;9.162;2022-10-19T04:16:16;14.80;95.50
292;DHT22;23311;48.776;9.162;2022-10-19T04:18:44;14.80;95.50
292;DHT22;23311;48.776;9.162;2022-10-19T04:21:21;14.90;95.50
292;DHT22;23311;48.776;9.162;2022-10-19T04:23:51;14.90;95.50
292;DHT22;23311;48.776;9.162;2022-10-19T04:26:20;14.90;95.50
292;DHT22;23311;48.776;9.162;2022-10-19T04:28:48;14.90;95.50
292;DHT22;23311;48.776;9.162;2022-10-19T04:31:16;14.90;95.50
292;DHT22;23311;48.776;9.162;2022-10-19T04:33:44;14.90;95.50
292;DHT22;23311;48.776;9.162;2022-10-19T04:36:18;14.90;95.50
292;DHT22;23311;48.776;9.162;2022-10-19T04:38:46;14.90;95.50
292;DHT22;23311;48.776;9.162;2022-10-19T04:41:16;14.90;95.50
292;DHT22;23311;48.776;9.162;2022-10-19T04:43:45;14.90;95.50
292;DHT22;23311;48.776;9.162;2022-10-19T04:46:15;14.90;95.50
292;DHT22;23311;48.776;9.162;2022-10-19T04:48:45;14.90;95.50
292;DHT22;23311;48.776;9.162;2022-10-19T04:51:14;14.90;95.50
292;DHT22;23311;48.776;9.162;2022-10-19T04:53:44;14.90;95.50
292;DHT22;23311;48.776;9.162;2022-10-19T04:56:15;15.00;95.50
292;DHT22;23311;48.776;9.162;2022-10-19T04:58:44;15.00;95.50
292;DHT22;23311;48.776;9.162;2022-10-19T05:01:13;15.00;95.50
292;DHT22;23311;48.776;9.162;2022-10-19T05:03:42;15.00;95.50
292;DHT22;23311;48.776;9.162;2022-10-19T05:06:12;15.00;95.50
292;DHT22;23311;48.776;9.162;2022-10-19T05:08:40;15.10;95.50
292;DHT22;23311;48.776;9.162;2022-10-19T05:11:13;15.10;95.50
292;DHT22;23311;48.776;9.162;2022-10-19T05:13:41;15.10;95.50
292;DHT22;23311;48.776;9.162;2022-10-19T05:16:12;15.00;95.50
292;DHT22;23311;48.776;9.162;2022-10-19T05:18:40;15.00;95.50
292;DHT22;23311;48.776;9.162;2022-10-19T05:21:10;14.90;95.50
292;DHT22;23311;48.776;9.162;2022-10-19T05:23:39;14.90;95.50
292;DHT22;23311;48.776;9.162;2022-10-19T05:26:10;14.90;95.50
292;DHT22;23311;48.776;9.162;2022-10-19T05:28:38;14.80;95.50
292;DHT22;23311;48.776;9.162;2022-10-19T05:31:08;14.80;95.50
292;DHT22;23311;48.776;9.162;2022-10-19T05:33:37;14.80;95.50
292;DHT22;23311;48.776;9.162;2022-10-19T05:36:16;14.80;95.50
292;DHT22;23311;48.776;9.162;2022-10-19T05:38:46;14.90;95.50
292;DHT22;23311;48.776;9.162;2022-10-19T05:41:16;14.90;95.50
292;DHT22;23311;48.776;9.162;2022-10-19T05:43:45;14.90;95.50
292;DHT22;23311;48.776;9.162;2022-10-19T05:46:15;14.90;95.50
292;DHT22;23311;48.776;9.162;2022-10-19T05:48:45;14.90;95.50
292;DHT22;23311;48.776;9.162;2022-10-19T05:51:15;14.90;95.50
292;DHT22;23311;48.776;9.162;2022-10-19T05:53:44;14.90;95.50
292;DHT22;23311;48.776;9.162;2022-10-19T05:56:14;14.90;95.50
292;DHT22;23311;48.776;9.162;2022-10-19T05:58:43;14.90;95.50
292;DHT22;23311;48.776;9.162;2022-10-19T06:01:12;14.90;95.50
292;DHT22;23311;48.776;9.162;2022-10-19T06:03:44;14.90;95.50
292;DHT22;23311;48.776;9.162;2022-10-19T06:06:12;14.90;95.50
292;DHT22;23311;48.776;9.162;2022-10-19T06:08:40;14.80;95.50
292;DHT22;23311;48.776;9.162;2022-10-19T06:11:10;14.90;95.50
292;DHT22;23311;48.776;9.162;2022-10-19T06:13:40;14.90;95.50
292;DHT22;23311;48.776;9.162;2022-10-19T06:16:11;15.00;95.50
292;DHT22;23311;48.776;9.162;2022-10-19T06:18:39;15.00;95.50
292;DHT22;23311;48.776;9.162;2022-10-19T06:21:14;15.10;95.50
292;DHT22;23311;48.776;9.162;2022-10-19T06:23:42;15.10;95.50
292;DHT22;23311;48.776;9.162;2022-10-19T06:26:12;15.10;95.50
292;DHT22;23311;48.776;9.162;2022-10-19T06:28:41;15.10;95.50
292;DHT22;23311;48.776;9.162;2022-10-19T06:31:12;15.20;95.50
292;DHT22;23311;48.776;9.162;2022-10-19T06:33:42;15.10;95.50
292;DHT22;23311;48.776;9.162;2022-10-19T06:36:17;15.10;95.50
292;DHT22;23311;48.776;9.162;2022-10-19T06:38:46;15.20;95.50
292;DHT22;23311;48.776;9.162;2022-10-19T06:41:14;15.20;95.50
292;DHT22;23311;48.776;9.162;2022-10-19T06:43:42;15.30;95.50
292;DHT22;23311;48.776;9.162;2022-10-19T06:46:14;15.40;95.50
292;DHT22;23311;48.776;9.162;2022-10-19T06:48:49;15.50;95.50
292;DHT22;23311;48.776;9.162;2022-10-19T06:51:18;15.50;95.50
292;DHT22;23311;48.776;9.162;2022-10-19T06:53:46;15.60;95.50
292;DHT22;23311;48.776;9.162;2022-10-19T06:56:21;15.60;95.50
292;DHT22;23311;48.776;9.162;2022-10-19T06:58:50;15.60;95.50
292;DHT22;23311;48.776;9.162;2022-10-19T07:01:20;15.50;95.50
292;DHT22;23311;48.776;9.162;2022-10-19T07:03:49;15.60;95.50
292;DHT22;23311;48.776;9.162;2022-10-19T07:06:18;15.60;95.50
292;DHT22;23311;48.776;9.162;2022-10-19T07:08:46;15.70;95.50
292;DHT22;23311;48.776;9.162;2022-10-19T07:11:16;15.60;95.50
292;DHT22;23311;48.776;9.162;2022-10-19T07:13:45;15.70;95.50
292;DHT22;23311;48.776;9.162;2022-10-19T07:16:14;15.80;95.50
292;DHT22;23311;48.776;9.162;2022-10-19T07:18:49;15.80;95.50
292;DHT22;23311;48.776;9.162;2022-10-19T07:21:20;15.80;95.50
292;DHT22;23311;48.776;9.162;2022-10-19T07:23:48;15.80;95.50
292;DHT22;23311;48.776;9.162;2022-10-19T07:26:18;15.70;95.50
292;DHT22;23311;48.776;9.162;2022-10-19T07:28:47;15.80;95.50
292;DHT22;23311;48.776;9.162;2022-10-19T07:31:18;15.70;95.50
292;DHT22;23311;48.776;9.162;2022-10-19T07:33:50;15.80;95.50
292;DHT22;23311;48.776;9.162;2022-10-19T07:36:19;15.90;95.50
292;DHT22;23311;48.776;9.162;2022-10-19T07:38:47;16.00;95.50
292;DHT22;23311;48.776;9.162;2022-10-19T07:41:17;16.00;95.50
292;DHT22;23311;48.776;9.162;2022-10-19T07:43:46;16.30;95.50
292;DHT22;23311;48.776;9.162;2022-10-19T07:46:16;16.50;95.50
292;DHT22;23311;48.776;9.162;2022-10-19T07:48:45;16.70;95.50
292;DHT22;23311;48.776;9.162;2022-10-19T07:51:15;16.80;95.50
292;DHT22;23311;48.776;9.162;2022-10-19T07:53:44;16.90;95.50
292;DHT22;23311;48.776;9.162;2022-10-19T07:56:15;16.90;95.50
292;DHT22;23311;48.776;9.162;2022-10-19T07:58:43;16.90;95.50
292;DHT22;23311;48.776;9.162;2022-10-19T08:01:13;16.80;95.50
292;DHT22;23311;48.776;9.162;2022-10-19T08:03:42;16.80;95.50
292;DHT22;23311;48.776;9.162;2022-10-19T08:06:32;17.00;95.50
292;DHT22;23311;48.776;9.162;2022-10-19T08:09:00;17.00;95.50
292;DHT22;23311;48.776;9.162;2022-10-19T08:11:29;17.00;95.50
292;DHT22;23311;48.776;9.162;2022-10-19T08:13:58;17.10;95.50
292;DHT22;23311;48.776;9.162;2022-10-19T08:16:30;17.20;95.50
292;DHT22;23311;48.776;9.162;2022-10-19T08:19:01;17.40;95.50
292;DHT22;23311;48.776;9.162;2022-10-19T08:21:31;17.50;95.50
292;DHT22;23311;48.776;9.162;2022-10-19T08:23:59;17.50;95.50
292;DHT22;23311;48.776;9.162;2022-10-19T08:26:28;17.60;95.50
292;DHT22;23311;48.776;9.162;2022-10-19T08:28:58;17.70;95.50
292;DHT22;23311;48.776;9.162;2022-10-19T08:31:27;17.60;95.50
292;DHT22;23311;48.776;9.162;2022-10-19T08:33:55;17.50;95.50
292;DHT22;23311;48.776;9.162;2022-10-19T08:36:24;17.50;95.50
292;DHT22;23311;48.776;9.162;2022-10-19T08:38:54;17.50;95.50
292;DHT22;23311;48.776;9.162;2022-10-19T08:41:30;17.60;95.50
292;DHT22;23311;48.776;9.162;2022-10-19T08:44:19;17.60;95.50
292;DHT22;23311;48.776;9.162;2022-10-19T08:46:56;17.50;95.50
292;DHT22;23311;48.776;9.162;2022-10-19T08:49:29;17.50;95.50
292;DHT22;23311;48.776;9.162;2022-10-19T08:52:00;17.70;95.50
292;DHT22;23311;48.776;9.162;2022-10-19T08:54:41;17.70;95.50
292;DHT22;23311;48.776;9.162;2022-10-19T08:57:24;17.40;95.50
292;DHT22;23311;48.776;9.162;2022-10-19T08:59:57;17.30;95.50
292;DHT22;23311;48.776;9.162;2022-10-19T09:02:36;17.30;95.50
292;DHT22;23311;48.776;9.162;2022-10-19T09:05:15;17.30;95.50
292;DHT22;23311;48.776;9.162;2022-10-19T09:07:50;17.20;95.50
292;DHT22;23311;48.776;9.162;2022-10-19T09:10:24;17.10;95.50
292;DHT22;23311;48.776;9.162;2022-10-19T09:12:57;17.10;95.50
292;DHT22;23311;48.776;9.162;2022-10-19T09:15:27;17.10;95.50
292;DHT22;23311;48.776;9.162;2022-10-19T09:18:00;17.30;95.50
292;DHT22;23311;48.776;9.162;2022-10-19T09:20:32;17.50;95.50
292;DHT22;23311;48.776;9.162;2022-10-19T09:23:04;17.40;95.50
292;DHT22;23311;48.776;9.162;2022-10-19T09:25:40;17.20;95.50
292;DHT22;23311;48.776;9.162;2022-10-19T09:28:20;17.10;95.50
292;DHT22;23311;48.776;9.162;2022-10-19T09:31:03;17.10;95.50
292;DHT22;23311;48.776;9.162;2022-10-19T09:33:33;17.40;95.50
292;DHT22;23311;48.776;9.162;2022-10-19T09:36:04;17.60;95.50
292;DHT22;23311;48.776;9.162;2022-10-19T09:38:33;17.60;95.50
292;DHT22;23311;48.776;9.162;2022-10-19T09:41:16;17.50;95.50
292;DHT22;23311;48.776;9.162;2022-10-19T09:43:49;17.30;95.50
292;DHT22;23311;48.776;9.162;2022-10-19T09:46:31;17.20;95.50
292;DHT22;23311;48.776;9.162;2022-10-19T09:49:04;17.40;95.50
292;DHT22;23311;48.776;9.162;2022-10-19T09:51:44;17.40;95.50
292;DHT22;23311;48.776;9.162;2022-10-19T09:54:23;17.40;95.50
292;DHT22;23311;48.776;9.162;2022-10-19T09:56:54;17.50;95.50
292;DHT22;23311;48.776;9.162;2022-10-19T09:59:27;17.20;95.50
292;DHT22;23311;48.776;9.162;2022-10-19T10:02:10;17.00;95.50
292;DHT22;23311;48.776;9.162;2022-10-19T10:04:44;16.90;95.50
292;DHT22;23311;48.776;9.162;2022-10-19T10:07:16;17.00;95.50
292;DHT22;23311;48.776;9.162;2022-10-19T10:09:44;17.10;95.50
292;DHT22;23311;48.776;9.162;2022-10-19T10:12:15;17.20;95.50
292;DHT22;23311;48.776;9.162;2022-10-19T10:14:43;17.30;95.50
292;DHT22;23311;48.776;9.162;2022-10-19T10:17:15;17.30;95.50
292;DHT22;23311;48.776;9.162;2022-10-19T10:20:03;17.30;95.50
292;DHT22;23311;48.776;9.162;2022-10-19T10:22:33;17.50;95.50
292;DHT22;23311;48.776;9.162;2022-10-19T10:25:11;17.50;95.50
292;DHT22;23311;48.776;9.162;2022-10-19T10:27:42;17.40;95.50
292;DHT22;23311;48.776;9.162;2022-10-19T10:30:20;17.50;95.50
292;DHT22;23311;48.776;9.162;2022-10-19T10:32:50;17.50;95.50
292;DHT22;23311;48.776;9.162;2022-10-19T10:35:21;17.60;95.50
292;DHT22;23311;48.776;9.162;2022-10-19T10:37:50;17.70;95.50
292;DHT22;23311;48.776;9.162;2022-10-19T10:40:23;17.70;95.50
292;DHT22;23311;48.776;9.162;2022-10-19T10:42:57;17.50;95.50
292;DHT22;23311;48.776;9.162;2022-10-19T10:45:31;17.50;95.50
292;DHT22;23311;48.776;9.162;2022-10-19T10:48:13;17.60;95.50
292;DHT22;23311;48.776;9.162;2022-10-19T10:50:44;17.80;95.50
292;DHT22;23311;48.776;9.162;2022-10-19T10:53:31;17.90;95.50
292;DHT22;23311;48.776;9.162;2022-10-19T10:56:00;18.10;95.50
292;DHT22;23311;48.776;9.162;2022-10-19T10:58:35;18.20;95.50
292;DHT22;23311;48.776;9.162;2022-10-19T11:01:12;18.30;95.50
292;DHT22;23311;48.776;9.162;2022-10-19T11:03:47;18.20;95.50
292;DHT22;23311;48.776;9.162;2022-10-19T11:06:18;18.60;95.50
292;DHT22;23311;48.776;9.162;2022-10-19T11:09:00;18.70;95.50
292;DHT22;23311;48.776;9.162;2022-10-19T11:11:34;18.80;95.50
292;DHT22;23311;48.776;9.162;2022-10-19T11:14:29;18.80;95.50
292;DHT22;23311;48.776;9.162;2022-10-19T11:17:03;18.70;95.50
292;DHT22;23311;48.776;9.162;2022-10-19T11:19:35;18.80;95.50
292;DHT22;23311;48.776;9.162;2022-10-19T11:22:13;18.70;95.50
292;DHT22;23311;48.776;9.162;2022-10-19T11:24:52;18.70;95.50
292;DHT22;23311;48.776;9.162;2022-10-19T11:27:32;18.90;95.50
292;DHT22;23311;48.776;9.162;2022-10-19T11:30:08;19.10;95.50
292;DHT22;23311;48.776;9.162;2022-10-19T11:32:51;19.00;95.50
292;DHT22;23311;48.776;9.162;2022-10-19T11:35:42;18.90;95.50
292;DHT22;23311;48.776;9.162;2022-10-19T11:38:24;18.80;95.50
292;DHT22;23311;48.776;9.162;2022-10-19T11:41:05;18.90;95.50
292;DHT22;23311;48.776;9.162;2022-10-19T11:44:10;19.10;95.50
292;DHT22;23311;48.776;9.162;2022-10-19T11:46:52;19.30;95.50
292;DHT22;23311;48.776;9.162;2022-10-19T11:49:34;19.30;95.50
292;DHT22;23311;48.776;9.162;2022-10-19T11:52:09;19.10;95.50
292;DHT22;23311;48.776;9.162;2022-10-19T11:54:48;19.00;95.50
292;DHT22;23311;48.776;9.162;2022-10-19T11:57:22;18.80;95.50
292;DHT22;23311;48.776;9.162;2022-10-19T12:00:00;18.80;95.50
292;DHT22;23311;48.776;9.162;2022-10-19T12:03:11;19.00;95.50
292;DHT22;23311;48.776;9.162;2022-10-19T12:06:00;19.00;95.50
292;DHT22;23311;48.776;9.162;2022-10-19T12:08:40;19.00;95.50
292;DHT22;23311;48.776;9.162;2022-10-19T12:11:25;19.20;95.50
292;DHT22;23311;48.776;9.162;2022-10-19T12:13:58;19.30;95.50
292;DHT22;23311;48.776;9.162;2022-10-19T12:16:34;19.70;95.50
292;DHT22;23311;48.776;9.162;2022-10-19T12:19:05;19.50;95.50
292;DHT22;23311;48.776;9.162;2022-10-19T12:21:40;19.60;95.50
292;DHT22;23311;48.776;9.162;2022-10-19T12:24:14;19.80;95.50
292;DHT22;23311;48.776;9.162;2022-10-19T12:26:44;19.70;95.40
292;DHT22;23311;48.776;9.162;2022-10-19T12:29:16;19.60;95.50
292;DHT22;23311;48.776;9.162;2022-10-19T12:31:47;19.70;95.50
292;DHT22;23311;48.776;9.162;2022-10-19T12:34:27;19.70;95.40
292;DHT22;23311;48.776;9.162;2022-10-19T12:37:02;19.70;95.50
292;DHT22;23311;48.776;9.162;2022-10-19T12:39:38;19.80;95.20
292;DHT22;23311;48.776;9.162;2022-10-19T12:42:17;19.90;94.80
292;DHT22;23311;48.776;9.162;2022-10-19T12:45:10;19.80;94.80
292;DHT22;23311;48.776;9.162;2022-10-19T12:51:15;19.40;95.50
292;DHT22;23311;48.776;9.162;2022-10-19T12:53:46;19.30;95.50
292;DHT22;23311;48.776;9.162;2022-10-19T12:56:18;19.20;95.50
292;DHT22;23311;48.776;9.162;2022-10-19T12:58:53;19.30;95.50
292;DHT22;23311;48.776;9.162;2022-10-19T13:01:25;19.50;95.50
292;DHT22;23311;48.776;9.162;2022-10-19T13:04:07;19.50;95.50
292;DHT22;23311;48.776;9.162;2022-10-19T13:06:40;19.60;95.40
292;DHT22;23311;48.776;9.162;2022-10-19T13:09:22;19.70;95.20
292;DHT22;23311;48.776;9.162;2022-10-19T13:12:28;19.30;95.50
292;DHT22;23311;48.776;9.162;2022-10-19T13:14:57;19.00;95.50
292;DHT22;23311;48.776;9.162;2022-10-19T13:17:39;19.00;95.50
292;DHT22;23311;48.776;9.162;2022-10-19T13:20:47;18.90;95.50
292;DHT22;23311;48.776;9.162;2022-10-19T13:23:37;18.80;95.50
292;DHT22;23311;48.776;9.162;2022-10-19T13:26:28;18.80;95.50
292;DHT22;23311;48.776;9.162;2022-10-19T13:28:57;18.70;95.50
292;DHT22;23311;48.776;9.162;2022-10-19T13:31:27;18.60;95.50
292;DHT22;23311;48.776;9.162;2022-10-19T13:33:55;18.60;95.50
292;DHT22;23311;48.776;9.162;2022-10-19T13:36:24;18.40;95.50
292;DHT22;23311;48.776;9.162;2022-10-19T13:39:13;18.30;95.50
292;DHT22;23311;48.776;9.162;2022-10-19T13:41:50;18.30;95.50
292;DHT22;23311;48.776;9.162;2022-10-19T13:44:23;18.40;95.50
292;DHT22;23311;48.776;9.162;2022-10-19T13:47:22;18.50;95.50
292;DHT22;23311;48.776;9.162;2022-10-19T13:50:15;18.60;95.50
292;DHT22;23311;48.776;9.162;2022-10-19T13:53:08;18.60;95.50
292;DHT22;23311;48.776;9.162;2022-10-19T13:58:59;18.60;95.50
292;DHT22;23311;48.776;9.162;2022-10-19T14:01:41;18.80;95.50
292;DHT22;23311;48.776;9.162;2022-10-19T14:04:20;18.50;95.50
292;DHT22;23311;48.776;9.162;2022-10-19T14:06:54;18.50;95.50
292;DHT22;23311;48.776;9.162;2022-10-19T14:09:42;18.50;95.50
292;DHT22;23311;48.776;9.162;2022-10-19T14:12:17;18.40;95.50
292;DHT22;23311;48.776;9.162;2022-10-19T14:14:48;18.30;95.50
292;DHT22;23311;48.776;9.162;2022-10-19T14:17:20;18.20;95.50
292;DHT22;23311;48.776;9.162;2022-10-19T14:19:51;18.30;95.50
292;DHT22;23311;48.776;9.162;2022-10-19T14:22:24;18.30;95.50
292;DHT22;23311;48.776;9.162;2022-10-19T14:24:59;18.30;95.50
292;DHT22;23311;48.776;9.162;2022-10-19T14:27:29;18.30;95.50
292;DHT22;23311;48.776;9.162;2022-10-19T14:29:58;18.20;95.50
292;DHT22;23311;48.776;9.162;2022-10-19T14:32:28;18.00;95.50
292;DHT22;23311;48.776;9.162;2022-10-19T14:35:00;18.00;95.50
292;DHT22;23311;48.776;9.162;2022-10-19T14:37:30;17.90;95.50
292;DHT22;23311;48.776;9.162;2022-10-19T14:40:02;17.80;95.50
292;DHT22;23311;48.776;9.162;2022-10-19T14:42:37;17.80;95.50
292;DHT22;23311;48.776;9.162;2022-10-19T14:45:12;17.70;95.50
292;DHT22;23311;48.776;9.162;2022-10-19T14:47:51;17.70;95.50
292;DHT22;23311;48.776;9.162;2022-10-19T14:50:23;17.80;95.50
292;DHT22;23311;48.776;9.162;2022-10-19T14:52:56;17.70;95.50
292;DHT22;23311;48.776;9.162;2022-10-19T14:55:31;17.70;95.50
292;DHT22;23311;48.776;9.162;2022-10-19T14:58:09;17.70;95.50
292;DHT22;23311;48.776;9.162;2022-10-19T15:00:39;17.70;95.50
292;DHT22;23311;48.776;9.162;2022-10-19T15:03:10;17.80;95.50
292;DHT22;23311;48.776;9.162;2022-10-19T15:05:45;17.80;95.50
292;DHT22;23311;48.776;9.162;2022-10-19T15:08:23;17.80;95.50
292;DHT22;23311;48.776;9.162;2022-10-19T15:10:54;17.70;95.50
292;DHT22;23311;48.776;9.162;2022-10-19T15:13:25;17.70;95.50
292;DHT22;23311;48.776;9.162;2022-10-19T15:15:55;17.60;95.50
292;DHT22;23311;48.776;9.162;2022-10-19T15:18:25;17.60;95.50
292;DHT22;23311;48.776;9.162;2022-10-19T15:21:18;17.50;95.50
292;DHT22;23311;48.776;9.162;2022-10-19T15:23:48;17.40;95.50
292;DHT22;23311;48.776;9.162;2022-10-19T15:26:19;17.40;95.50
292;DHT22;23311;48.776;9.162;2022-10-19T15:28:49;17.30;95.50
292;DHT22;23311;48.776;9.162;2022-10-19T15:31:19;17.20;95.50
292;DHT22;23311;48.776;9.162;2022-10-19T15:33:49;17.10;95.50
292;DHT22;23311;48.776;9.162;2022-10-19T15:36:19;17.10;95.50
292;DHT22;23311;48.776;9.162;2022-10-19T15:38:49;17.10;95.50
292;DHT22;23311;48.776;9.162;2022-10-19T15:41:46;17.00;95.50
292;DHT22;23311;48.776;9.162;2022-10-19T15:44:38;16.80;95.50
292;DHT22;23311;48.776;9.162;2022-10-19T15:47:25;16.80;95.50
292;DHT22;23311;48.776;9.162;2022-10-19T15:49:57;16.70;95.50
292;DHT22;23311;48.776;9.162;2022-10-19T15:52:26;16.70;95.50
292;DHT22;23311;48.776;9.162;2022-10-19T15:54:56;16.60;95.50
292;DHT22;23311;48.776;9.162;2022-10-19T15:57:27;16.50;95.50
292;DHT22;23311;48.776;9.162;2022-10-19T15:59:59;16.40;95.50
292;DHT22;23311;48.776;9.162;2022-10-19T16:02:27;16.30;95.50
292;DHT22;23311;48.776;9.162;2022-10-19T16:04:55;16.30;95.50
292;DHT22;23311;48.776;9.162;2022-10-19T16:07:25;16.20;95.50
292;DHT22;23311;48.776;9.162;2022-10-19T16:09:53;16.20;95.50
292;DHT22;23311;48.776;9.162;2022-10-19T16:12:22;16.10;95.50
292;DHT22;23311;48.776;9.162;2022-10-19T16:14:52;16.00;95.50
292;DHT22;23311;48.776;9.162;2022-10-19T16:17:21;15.90;95.50
292;DHT22;23311;48.776;9.162;2022-10-19T16:19:50;15.90;95.50
292;DHT22;23311;48.776;9.162;2022-10-19T16:22:18;15.80;95.50
292;DHT22;23311;48.776;9.162;2022-10-19T16:24:46;15.70;95.50
292;DHT22;23311;48.776;9.162;2022-10-19T16:27:14;15.60;95.50
292;DHT22;23311;48.776;9.162;2022-10-19T16:29:43;15.60;95.50
292;DHT22;23311;48.776;9.162;2022-10-19T16:32:11;15.50;95.50
292;DHT22;23311;48.776;9.162;2022-10-19T16:34:40;15.40;95.50
292;DHT22;23311;48.776;9.162;2022-10-19T16:37:08;15.30;95.50
292;DHT22;23311;48.776;9.162;2022-10-19T16:39:37;15.20;95.50
292;DHT22;23311;48.776;9.162;2022-10-19T16:42:05;15.20;95.50
292;DHT22;23311;48.776;9.162;2022-10-19T16:44:33;15.00;95.50
292;DHT22;23311;48.776;9.162;2022-10-19T16:47:01;14.90;95.50
292;DHT22;23311;48.776;9.162;2022-10-19T16:49:29;14.80;95.50